createdAt,value
2022-08-17T00:00:52.478Z,100193.17
2022-08-17T00:03:34.307Z,100193.06
2022-08-17T00:06:16.961Z,100198.40
2022-08-17T00:09:01.695Z,100195.34
2022-08-17T00:11:44.659Z,100201.39
2022-08-17T00:14:41.277Z,100200.62
2022-08-17T00:17:21.108Z,100203.82
2022-08-17T00:20:03.775Z,100197.00
2022-08-17T00:22:43.522Z,100197.00
2022-08-17T00:25:22.238Z,100191.20
2022-08-17T00:28:03.090Z,100191.79
2022-08-17T00:30:52.905Z,100185.52
2022-08-17T00:33:35.629Z,100187.98
2022-08-17T00:36:10.387Z,100194.17
2022-08-17T00:38:47.998Z,100194.33
2022-08-17T00:41:29.759Z,100195.66
2022-08-17T00:44:13.732Z,100189.54
2022-08-17T00:46:51.228Z,100190.96
2022-08-17T00:49:29.976Z,100191.94
2022-08-17T00:52:12.771Z,100191.45
2022-08-17T00:54:50.729Z,100190.14
2022-08-17T00:57:31.368Z,100192.98
2022-08-17T01:00:15.073Z,100198.98
2022-08-17T01:02:52.977Z,100199.88
2022-08-17T01:05:34.644Z,100197.38
2022-08-17T01:08:16.252Z,100202.75
2022-08-17T01:11:01.770Z,100206.53
2022-08-17T01:13:42.814Z,100204.77
2022-08-17T01:16:28.797Z,100203.95
2022-08-17T01:19:12.630Z,100204.21
2022-08-17T01:21:59.185Z,100206.02
2022-08-17T01:24:36.895Z,100213.30
2022-08-17T01:27:18.514Z,100211.39
2022-08-17T01:30:02.553Z,100208.45
2022-08-17T01:32:44.323Z,100203.45
2022-08-17T01:35:23.966Z,100208.50
2022-08-17T01:38:07.933Z,100211.66
2022-08-17T01:40:57.751Z,100218.08
2022-08-17T01:43:39.575Z,100208.78
2022-08-17T01:46:24.295Z,100203.39
2022-08-17T01:49:03.943Z,100206.08
2022-08-17T01:51:40.841Z,100205.32
2022-08-17T01:54:20.437Z,100204.41
2022-08-17T01:56:58.046Z,100207.58
2022-08-17T01:59:42.314Z,100206.50
2022-08-17T02:02:31.204Z,100211.55
2022-08-17T02:05:10.368Z,100208.79
2022-08-17T02:08:00.438Z,100215.86
2022-08-17T02:10:40.143Z,100212.52
2022-08-17T02:13:23.774Z,100206.83
2022-08-17T02:16:06.640Z,100207.75
2022-08-17T02:18:44.319Z,100205.88
2022-08-17T02:21:27.070Z,100206.82
2022-08-17T02:24:09.823Z,100208.55
2022-08-17T02:26:51.806Z,100212.14
2022-08-17T02:29:29.277Z,100213.20
2022-08-17T02:32:12.126Z,100219.05
2022-08-17T02:35:02.913Z,100223.36
2022-08-17T02:37:45.786Z,100222.65
2022-08-17T02:40:36.397Z,100226.23
2022-08-17T02:43:16.365Z,100225.85
2022-08-17T02:45:56.293Z,100219.27
2022-08-17T02:48:43.039Z,100215.80
2022-08-17T02:51:20.545Z,100220.36
2022-08-17T02:54:39.291Z,100222.98
2022-08-17T02:56:57.030Z,100225.63
2022-08-17T02:59:37.159Z,100223.71
2022-08-17T03:02:15.718Z,100225.09
2022-08-17T03:04:59.954Z,100223.36
2022-08-17T03:07:36.515Z,100224.28
2022-08-17T03:10:18.236Z,100226.67
2022-08-17T03:12:57.820Z,100224.61
2022-08-17T03:15:40.632Z,100233.85
2022-08-17T03:18:25.683Z,100235.42
2022-08-17T03:21:07.199Z,100231.67
2022-08-17T03:23:44.958Z,100237.10
2022-08-17T03:26:29.635Z,100236.89
2022-08-17T03:29:06.626Z,100241.17
2022-08-17T03:31:49.627Z,100238.11
2022-08-17T03:34:26.079Z,100233.95
2022-08-17T03:37:04.896Z,100232.87
2022-08-17T03:39:43.660Z,100236.23
2022-08-17T03:42:32.597Z,100240.55
2022-08-17T03:45:15.632Z,100241.95
2022-08-17T03:48:12.249Z,100245.00
2022-08-17T03:51:10.339Z,100243.74
2022-08-17T03:54:21.055Z,100250.15
2022-08-17T03:57:16.326Z,100246.95
2022-08-17T03:59:56.720Z,100247.39
2022-08-17T04:02:36.226Z,100247.06
2022-08-17T04:05:15.005Z,100242.77
2022-08-17T04:07:53.758Z,100243.31
2022-08-17T04:10:31.529Z,100243.70
2022-08-17T04:13:13.310Z,100245.77
2022-08-17T04:15:54.172Z,100244.70
2022-08-17T04:18:32.831Z,100245.25
2022-08-17T04:21:17.687Z,100251.17
2022-08-17T04:23:59.554Z,100257.04
2022-08-17T04:26:53.947Z,100258.62
2022-08-17T04:29:54.113Z,100262.77
2022-08-17T04:33:10.824Z,100265.42
2022-08-17T04:35:37.634Z,100269.56
2022-08-17T04:38:21.499Z,100270.64
2022-08-17T04:41:18.375Z,100272.08
2022-08-17T04:44:01.194Z,100269.88
2022-08-17T04:46:37.694Z,100271.39
2022-08-17T04:49:15.361Z,100268.67
2022-08-17T04:51:56.329Z,100268.45
2022-08-17T04:54:37.957Z,100267.15
2022-08-17T04:57:14.556Z,100272.75
2022-08-17T04:59:55.461Z,100268.14
2022-08-17T05:02:31.870Z,100268.02
2022-08-17T05:05:14.945Z,100267.54
2022-08-17T05:07:52.566Z,100270.21
2022-08-17T05:10:33.086Z,100271.44
2022-08-17T05:13:14.655Z,100272.79
2022-08-17T05:15:52.320Z,100274.98
2022-08-17T05:18:30.975Z,100271.64
2022-08-17T05:21:10.713Z,100265.83
2022-08-17T05:23:54.972Z,100272.23
2022-08-17T05:26:42.129Z,100277.39
2022-08-17T05:29:22.557Z,100278.11
2022-08-17T05:32:37.331Z,100277.26
2022-08-17T05:35:15.063Z,100269.05
2022-08-17T05:37:54.530Z,100265.94
2022-08-17T05:40:33.371Z,100265.56
2022-08-17T05:43:19.651Z,100268.05
2022-08-17T05:46:16.402Z,100270.96
2022-08-17T05:48:56.026Z,100273.39
2022-08-17T05:51:37.505Z,100275.47
2022-08-17T05:54:31.575Z,100274.50
2022-08-17T05:57:27.746Z,100277.45
2022-08-17T06:00:18.370Z,100279.01
2022-08-17T06:03:08.128Z,100274.55
2022-08-17T06:06:32.004Z,100274.54
2022-08-17T06:09:10.442Z,100275.80
2022-08-17T06:12:06.134Z,100275.02
2022-08-17T06:15:00.253Z,100277.96
2022-08-17T06:17:34.656Z,100281.06
2022-08-17T06:20:18.148Z,100279.47
2022-08-17T06:22:58.558Z,100281.20
2022-08-17T06:25:55.201Z,100281.06
2022-08-17T06:28:41.831Z,100283.13
2022-08-17T06:31:29.497Z,100283.67
2022-08-17T06:34:07.814Z,100281.91
2022-08-17T06:36:59.681Z,100279.27
2022-08-17T06:40:02.372Z,100279.60
2022-08-17T06:42:55.042Z,100282.05
2022-08-17T06:45:52.943Z,100282.50
2022-08-17T06:49:00.417Z,100282.27
2022-08-17T06:51:48.000Z,100286.66
2022-08-17T06:54:49.753Z,100283.09
2022-08-17T06:57:33.950Z,100275.16
2022-08-17T07:00:16.327Z,100278.98
2022-08-17T07:03:01.792Z,100281.62
2022-08-17T07:05:51.332Z,100284.05
2022-08-17T07:08:50.702Z,100280.12
2022-08-17T07:12:06.674Z,100278.19
2022-08-17T07:14:52.807Z,100280.50
2022-08-17T07:17:47.699Z,100280.41
2022-08-17T07:20:28.858Z,100277.42
2022-08-17T07:23:25.054Z,100276.84
2022-08-17T07:26:10.579Z,100273.20
2022-08-17T07:28:48.894Z,100276.69
2022-08-17T07:31:29.309Z,100277.30
2022-08-17T07:34:17.761Z,100277.77
2022-08-17T07:37:07.103Z,100284.77
2022-08-17T07:40:14.953Z,100286.02
2022-08-17T07:42:46.686Z,100286.05
2022-08-17T07:45:41.257Z,100285.09
2022-08-17T07:48:27.990Z,100285.19
2022-08-17T07:51:03.294Z,100282.29
2022-08-17T07:53:43.712Z,100282.84
2022-08-17T07:56:41.152Z,100281.70
2022-08-17T07:59:33.430Z,100279.15
2022-08-17T08:02:43.071Z,100275.77
2022-08-17T08:05:49.336Z,100274.48
2022-08-17T08:08:41.105Z,100272.39
2022-08-17T08:11:34.546Z,100272.11
2022-08-17T08:14:32.898Z,100267.36
2022-08-17T08:17:15.518Z,100268.56
2022-08-17T08:19:54.721Z,100269.89
2022-08-17T08:22:43.228Z,100268.98
2022-08-17T08:25:49.708Z,100267.51
2022-08-17T08:28:43.274Z,100267.10
2022-08-17T08:31:55.701Z,100261.70
2022-08-17T08:34:45.032Z,100260.38
2022-08-17T08:37:55.324Z,100258.95
2022-08-17T08:40:40.282Z,100249.40
2022-08-17T08:43:39.208Z,100258.15
2022-08-17T08:46:48.076Z,100253.03
2022-08-17T08:50:30.210Z,100247.06
2022-08-17T08:53:22.775Z,100249.53
2022-08-17T08:56:13.185Z,100246.54
2022-08-17T08:59:06.072Z,100244.29
2022-08-17T09:01:53.043Z,100240.30
2022-08-17T09:05:12.769Z,100238.98
2022-08-17T09:08:01.712Z,100241.46
2022-08-17T09:10:59.072Z,100240.11
2022-08-17T09:13:54.546Z,100241.73
2022-08-17T09:16:56.399Z,100239.64
2022-08-17T09:19:54.333Z,100236.73
2022-08-17T09:22:40.739Z,100237.39
2022-08-17T09:25:25.169Z,100236.56
2022-08-17T09:28:09.938Z,100235.70
2022-08-17T09:30:52.863Z,100234.73
2022-08-17T09:33:30.479Z,100234.21
2022-08-17T09:36:21.602Z,100233.36
2022-08-17T09:39:16.994Z,100236.70
2022-08-17T09:42:05.406Z,100233.29
2022-08-17T09:44:48.221Z,100232.84
2022-08-17T09:47:54.173Z,100232.83
2022-08-17T09:51:05.454Z,100231.43
2022-08-17T09:53:40.209Z,100232.67
2022-08-17T09:56:46.369Z,100226.18
2022-08-17T09:59:43.778Z,100230.55
2022-08-17T10:02:44.622Z,100233.39
2022-08-17T10:05:28.785Z,100227.30
2022-08-17T10:08:25.999Z,100230.84
2022-08-17T10:11:12.927Z,100222.63
2022-08-17T10:13:55.734Z,100222.39
2022-08-17T10:16:50.483Z,100220.83
2022-08-17T10:19:44.252Z,100220.44
2022-08-17T10:22:58.015Z,100219.41
2022-08-17T10:25:55.177Z,100221.30
2022-08-17T10:28:39.309Z,100207.91
2022-08-17T10:31:37.935Z,100204.34
2022-08-17T10:34:44.875Z,100205.22
2022-08-17T10:37:23.953Z,100200.97
2022-08-17T10:40:26.602Z,100198.90
2022-08-17T10:43:04.528Z,100197.73
2022-08-17T10:45:42.783Z,100190.00
2022-08-17T10:48:40.244Z,100188.95
2022-08-17T10:51:40.509Z,100185.83
2022-08-17T10:54:41.015Z,100184.52
2022-08-17T10:57:35.886Z,100182.56
2022-08-17T11:00:17.603Z,100182.67
2022-08-17T11:03:00.037Z,100183.09
2022-08-17T11:05:59.754Z,100177.64
2022-08-17T11:09:32.200Z,100178.77
2022-08-17T11:12:16.169Z,100179.08
2022-08-17T11:15:01.661Z,100172.24
2022-08-17T11:17:45.844Z,100174.09
2022-08-17T11:20:49.089Z,100176.50
2022-08-17T11:24:06.920Z,100179.48
2022-08-17T11:26:51.777Z,100171.02
2022-08-17T11:29:39.300Z,100166.30
2022-08-17T11:32:48.675Z,100163.48
2022-08-17T11:35:44.039Z,100158.66
2022-08-17T11:38:29.182Z,100166.77
2022-08-17T11:41:29.565Z,100160.27
2022-08-17T11:44:39.971Z,100167.73
2022-08-17T11:48:26.502Z,100168.59
2022-08-17T11:51:28.932Z,100163.30
2022-08-17T11:57:23.902Z,100148.67
2022-08-17T12:00:08.168Z,100137.62
2022-08-17T12:02:51.264Z,100138.02
2022-08-17T12:05:31.633Z,100135.80
2022-08-17T12:08:20.930Z,100139.27
2022-08-17T12:11:12.013Z,100131.96
2022-08-17T12:13:53.599Z,100137.60
2022-08-17T12:16:37.159Z,100139.96
2022-08-17T12:19:24.287Z,100130.09
2022-08-17T12:22:11.115Z,100127.85
2022-08-17T12:24:57.981Z,100126.67
2022-08-17T12:27:48.928Z,100127.44
2022-08-17T12:30:38.982Z,100132.02
2022-08-17T12:33:25.350Z,100134.29
2022-08-17T12:36:07.389Z,100129.93
2022-08-17T12:38:48.183Z,100128.09
2022-08-17T12:41:37.087Z,100123.38
2022-08-17T12:44:21.501Z,100124.65
2022-08-17T12:47:12.014Z,100121.58
2022-08-17T12:49:53.087Z,100127.63
2022-08-17T12:52:31.668Z,100124.39
2022-08-17T12:55:17.727Z,100123.96
2022-08-17T12:57:59.071Z,100126.81
2022-08-17T13:00:49.040Z,100128.70
2022-08-17T13:03:32.989Z,100127.92
2022-08-17T13:06:21.190Z,100122.10
2022-08-17T13:09:00.521Z,100122.33
2022-08-17T13:11:42.958Z,100124.30
2022-08-17T13:14:21.090Z,100117.77
2022-08-17T13:17:07.381Z,100119.12
2022-08-17T13:19:57.759Z,100105.50
2022-08-17T13:22:35.261Z,100105.64
2022-08-17T13:25:19.692Z,100111.98
2022-08-17T13:27:59.858Z,100112.30
2022-08-17T13:30:37.354Z,100115.84
2022-08-17T13:33:43.695Z,100115.89
2022-08-17T13:36:31.697Z,100111.92
2022-08-17T13:39:30.489Z,100105.66
2022-08-17T13:42:51.556Z,100108.36
2022-08-17T13:45:39.019Z,100104.84
2022-08-17T13:48:17.656Z,100106.05
2022-08-17T13:50:53.932Z,100101.05
2022-08-17T13:53:52.393Z,100100.34
2022-08-17T13:56:53.238Z,100099.63
2022-08-17T13:59:53.041Z,100096.92
2022-08-17T14:02:32.352Z,100096.38
2022-08-17T14:05:13.758Z,100095.16
2022-08-17T14:07:53.333Z,100091.94
2022-08-17T14:10:30.526Z,100095.09
2022-08-17T14:13:09.190Z,100092.82
2022-08-17T14:15:56.179Z,100095.96
2022-08-17T14:18:56.166Z,100095.08
2022-08-17T14:21:39.263Z,100101.34
2022-08-17T14:24:34.166Z,100099.58
2022-08-17T14:27:13.119Z,100095.13
2022-08-17T14:29:53.750Z,100094.77
2022-08-17T14:32:34.981Z,100098.17
2022-08-17T14:35:14.551Z,100099.14
2022-08-17T14:37:53.051Z,100106.04
2022-08-17T14:40:32.327Z,100106.50
2022-08-17T14:43:10.116Z,100111.70
2022-08-17T14:45:47.340Z,100116.77
2022-08-17T14:48:26.526Z,100118.76
2022-08-17T14:51:03.935Z,100121.55
2022-08-17T14:53:42.398Z,100126.48
2022-08-17T14:56:19.774Z,100136.23
2022-08-17T14:59:01.309Z,100136.88
2022-08-17T15:01:43.057Z,100137.77
2022-08-17T15:04:21.214Z,100139.00
2022-08-17T15:06:57.905Z,100143.79
2022-08-17T15:09:36.713Z,100145.36
2022-08-17T15:12:17.007Z,100141.55
2022-08-17T15:14:58.975Z,100138.98
2022-08-17T15:17:46.887Z,100140.08
2022-08-17T15:20:27.861Z,100142.46
2022-08-17T15:23:06.360Z,100148.23
2022-08-17T15:25:42.820Z,100149.41
2022-08-17T15:28:21.156Z,100148.42
2022-08-17T15:30:58.912Z,100147.79
2022-08-17T15:33:38.948Z,100147.04
2022-08-17T15:36:20.191Z,100145.83
2022-08-17T15:39:03.857Z,100149.77
2022-08-17T15:41:43.137Z,100153.55
2022-08-17T15:44:32.606Z,100151.55
2022-08-17T15:47:15.848Z,100151.15
2022-08-17T15:50:00.149Z,100150.99
2022-08-17T15:52:40.663Z,100153.40
2022-08-17T15:55:23.979Z,100154.81
2022-08-17T15:58:00.869Z,100158.14
2022-08-17T16:00:51.596Z,100158.64
2022-08-17T16:04:01.136Z,100162.08
2022-08-17T16:06:43.206Z,100163.30
2022-08-17T16:09:23.105Z,100167.42
2022-08-17T16:12:12.606Z,100169.13
2022-08-17T16:14:52.034Z,100172.16
2022-08-17T16:17:39.820Z,100170.02
2022-08-17T16:20:19.961Z,100177.94
2022-08-17T16:23:03.825Z,100177.85
2022-08-17T16:25:53.534Z,100181.13
2022-08-17T16:28:36.192Z,100187.14
2022-08-17T16:31:16.702Z,100188.82
2022-08-17T16:34:09.018Z,100190.79
2022-08-17T16:36:58.653Z,100192.21
2022-08-17T16:39:40.117Z,100190.27
2022-08-17T16:42:35.613Z,100187.29
2022-08-17T16:45:17.036Z,100184.46
2022-08-17T16:47:56.545Z,100182.23
2022-08-17T16:50:36.472Z,100186.26
2022-08-17T16:53:19.460Z,100187.45
2022-08-17T16:55:59.041Z,100189.22
2022-08-17T16:58:43.454Z,100189.14
2022-08-17T17:01:26.406Z,100192.96
2022-08-17T17:04:07.353Z,100193.56
2022-08-17T17:07:12.990Z,100196.19
2022-08-17T17:09:56.509Z,100195.28
2022-08-17T17:13:02.071Z,100198.29
2022-08-17T17:15:47.708Z,100204.12
2022-08-17T17:18:31.604Z,100206.59
2022-08-17T17:21:10.659Z,100208.77
2022-08-17T17:24:02.467Z,100207.83
2022-08-17T17:26:52.770Z,100208.26
2022-08-17T17:30:04.447Z,100211.56
2022-08-17T17:32:52.089Z,100220.64
2022-08-17T17:35:39.655Z,100221.54
2022-08-17T17:38:22.111Z,100219.09
2022-08-17T17:41:11.677Z,100224.30
2022-08-17T17:43:51.166Z,100228.94
2022-08-17T17:46:43.029Z,100235.17
2022-08-17T17:49:21.373Z,100239.95
2022-08-17T17:52:09.112Z,100242.97
2022-08-17T17:55:18.483Z,100244.54
2022-08-17T17:58:11.698Z,100245.02
2022-08-17T18:01:29.065Z,100244.00
2022-08-17T18:04:50.109Z,100247.40
2022-08-17T18:08:10.696Z,100251.04
2022-08-17T18:11:24.503Z,100253.38
2022-08-17T18:14:09.698Z,100261.19
2022-08-17T18:16:49.469Z,100261.90
2022-08-17T18:19:28.927Z,100267.32
2022-08-17T18:22:14.037Z,100270.16
2022-08-17T18:24:58.553Z,100271.67
2022-08-17T18:27:42.797Z,100272.55
2022-08-17T18:30:16.290Z,100273.23
2022-08-17T18:32:56.136Z,100277.86
2022-08-17T18:35:35.452Z,100282.34
2022-08-17T18:38:30.046Z,100279.63
2022-08-17T18:41:25.759Z,100281.51
2022-08-17T18:44:06.865Z,100285.48
2022-08-17T18:46:46.015Z,100284.10
2022-08-17T18:49:32.912Z,100291.61
2022-08-17T18:52:16.286Z,100290.74
2022-08-17T18:55:12.958Z,100295.09
2022-08-17T18:57:55.662Z,100296.36
2022-08-17T19:00:33.149Z,100297.55
2022-08-17T19:03:19.853Z,100292.48
2022-08-17T19:06:22.975Z,100293.94
2022-08-17T19:09:00.103Z,100293.27
2022-08-17T19:11:41.822Z,100294.95
2022-08-17T19:14:21.435Z,100300.45
2022-08-17T19:17:23.838Z,100304.03
2022-08-17T19:20:24.645Z,100301.57
2022-08-17T19:23:31.907Z,100305.22
2022-08-17T19:26:17.783Z,100303.33
2022-08-17T19:29:23.034Z,100306.49
2022-08-17T19:32:00.643Z,100309.63
2022-08-17T19:34:41.091Z,100314.05
2022-08-17T19:37:45.838Z,100315.66
2022-08-17T19:41:04.968Z,100317.11
2022-08-17T19:43:45.058Z,100316.04
2022-08-17T19:47:01.355Z,100315.25
2022-08-17T19:49:49.442Z,100320.16
2022-08-17T19:53:04.108Z,100327.99
2022-08-17T19:56:00.869Z,100326.85
2022-08-17T19:58:56.626Z,100331.14
2022-08-17T20:01:35.009Z,100332.08
2022-08-17T20:04:25.972Z,100326.63
2022-08-17T20:07:28.560Z,100320.41
2022-08-17T20:10:12.178Z,100313.31
2022-08-17T20:12:53.698Z,100319.66
2022-08-17T20:15:32.316Z,100324.16
2022-08-17T20:18:13.919Z,100333.56
2022-08-17T20:21:06.020Z,100333.84
2022-08-17T20:24:18.157Z,100331.90
2022-08-17T20:27:15.965Z,100336.27
2022-08-17T20:30:02.590Z,100337.80
2022-08-17T20:32:58.380Z,100344.59
2022-08-17T20:35:37.886Z,100348.42
2022-08-17T20:38:33.610Z,100351.75
2022-08-17T20:41:23.239Z,100353.83
2022-08-17T20:44:06.300Z,100351.80
2022-08-17T20:47:01.536Z,100356.86
2022-08-17T20:49:52.643Z,100358.39
2022-08-17T20:52:53.134Z,100360.34
2022-08-17T20:55:52.408Z,100358.73
2022-08-17T20:58:30.796Z,100357.45
2022-08-17T21:01:23.986Z,100356.74
2022-08-17T21:04:04.710Z,100354.91
2022-08-17T21:07:21.320Z,100352.48
2022-08-17T21:10:18.910Z,100355.60
2022-08-17T21:12:57.429Z,100360.88
2022-08-17T21:15:47.308Z,100362.05
2022-08-17T21:18:44.891Z,100362.37
2022-08-17T21:21:42.621Z,100361.58
2022-08-17T21:24:49.375Z,100359.77
2022-08-17T21:28:03.137Z,100357.11
2022-08-17T21:30:46.238Z,100366.58
2022-08-17T21:33:26.147Z,100369.79
2022-08-17T21:36:00.988Z,100376.02
2022-08-17T21:38:42.689Z,100378.39
2022-08-17T21:41:27.450Z,100377.80
2022-08-17T21:44:22.046Z,100381.20
2022-08-17T21:46:58.945Z,100384.11
2022-08-17T21:49:39.593Z,100381.47
2022-08-17T21:52:25.084Z,100382.88
2022-08-17T21:55:04.609Z,100386.80
2022-08-17T21:58:12.168Z,100385.84
2022-08-17T22:00:43.011Z,100387.52
2022-08-17T22:03:34.148Z,100384.33
2022-08-17T22:06:30.399Z,100380.45
2022-08-17T22:09:12.902Z,100378.11
2022-08-17T22:11:50.691Z,100376.55
2022-08-17T22:14:52.345Z,100373.52
2022-08-17T22:17:48.061Z,100371.53
2022-08-17T22:20:29.948Z,100378.55
2022-08-17T22:23:21.380Z,100379.41
2022-08-17T22:26:09.473Z,100378.28
2022-08-17T22:28:48.767Z,100375.05
2022-08-17T22:31:33.610Z,100371.48
2022-08-17T22:34:18.048Z,100377.27
2022-08-17T22:37:19.238Z,100375.08
2022-08-17T22:40:02.456Z,100378.79
2022-08-17T22:42:54.215Z,100384.53
2022-08-17T22:45:32.141Z,100383.56
2022-08-17T22:48:19.906Z,100386.58
2022-08-17T22:51:13.289Z,100385.60
2022-08-17T22:54:14.086Z,100385.38
2022-08-17T22:57:11.617Z,100390.02
2022-08-17T22:59:56.362Z,100397.80
2022-08-17T23:02:54.200Z,100396.97
2022-08-17T23:05:37.754Z,100391.65
2022-08-17T23:08:17.309Z,100384.16
2022-08-17T23:10:57.983Z,100372.77
2022-08-17T23:13:39.086Z,100367.30
2022-08-17T23:16:16.532Z,100375.30
2022-08-17T23:18:57.026Z,100366.32
2022-08-17T23:21:39.682Z,100369.29
2022-08-17T23:24:26.269Z,100372.23
2022-08-17T23:27:08.142Z,100381.45
2022-08-17T23:29:47.581Z,100380.47
2022-08-17T23:32:26.331Z,100379.94
2022-08-17T23:35:08.930Z,100382.93
2022-08-17T23:37:46.908Z,100381.77
2022-08-17T23:40:27.230Z,100376.41
2022-08-17T23:43:17.548Z,100373.02
2022-08-17T23:46:02.590Z,100367.42
2022-08-17T23:48:41.488Z,100362.89
2022-08-17T23:51:22.878Z,100357.31
2022-08-17T23:54:11.031Z,100364.88
2022-08-17T23:56:51.232Z,100365.10
2022-08-17T23:59:29.853Z,100364.45
